Palos Hills, Illinois
Current Conditions -  °F | °C
As of 10:53 AM on Thursday 30 Oct 2014 (Local Time) from KMDW Reporting Station
Broken Clouds Broken Clouds  
Wind Chill: 43°   Ceiling: 12000
Heat Index: 48°   Visibility: 10mi
Dew Point: 35°   Wind: 10mph
Humidity: 61%   Direction: 210°SSW
Pressure: 30.13"   Gusts: NA
Location:  41.7°N, 87.83°W
Report Text: KMDW 301553Z 21009KT 10SM BKN120 BKN250 09/02 A3013 RMK AO2 SLP208 T00890017
Loading
Personal Weather Stations






























Interactive Weather Map New forecast layout! Learn more

10-Day Weather Forecast

Advertisements
Track Severe Weather on mobile